sensor_id;sensor_type;location;lat;lon;timestamp;temperature;humidity
22065;DHT22;11197;53.110;8.468;2023-05-07T00:00:38;12.40;99.90
22065;DHT22;11197;53.110;8.468;2023-05-07T00:03:03;12.40;99.90
22065;DHT22;11197;53.110;8.468;2023-05-07T00:05:29;12.40;99.90
22065;DHT22;11197;53.110;8.468;2023-05-07T00:07:59;12.30;99.90
22065;DHT22;11197;53.110;8.468;2023-05-07T00:10:25;12.30;99.90
22065;DHT22;11197;53.110;8.468;2023-05-07T00:12:51;12.20;99.90
22065;DHT22;11197;53.110;8.468;2023-05-07T00:15:17;12.20;99.90
22065;DHT22;11197;53.110;8.468;2023-05-07T00:17:42;12.20;99.90
22065;DHT22;11197;53.110;8.468;2023-05-07T00:20:09;12.20;99.90
22065;DHT22;11197;53.110;8.468;2023-05-07T00:22:34;12.20;99.90
22065;DHT22;11197;53.110;8.468;2023-05-07T00:25:00;12.10;99.90
22065;DHT22;11197;53.110;8.468;2023-05-07T00:27:26;12.10;99.90
22065;DHT22;11197;53.110;8.468;2023-05-07T00:29:52;12.00;99.90
22065;DHT22;11197;53.110;8.468;2023-05-07T00:32:18;11.90;99.90
22065;DHT22;11197;53.110;8.468;2023-05-07T00:34:44;12.00;99.90
22065;DHT22;11197;53.110;8.468;2023-05-07T00:37:10;12.00;99.90
22065;DHT22;11197;53.110;8.468;2023-05-07T00:39:37;12.00;99.90
22065;DHT22;11197;53.110;8.468;2023-05-07T00:42:03;11.90;99.90
22065;DHT22;11197;53.110;8.468;2023-05-07T00:44:29;11.90;99.90
22065;DHT22;11197;53.110;8.468;2023-05-07T00:46:57;11.90;99.90
22065;DHT22;11197;53.110;8.468;2023-05-07T00:49:43;11.90;99.90
22065;DHT22;11197;53.110;8.468;2023-05-07T00:52:13;11.90;99.90
22065;DHT22;11197;53.110;8.468;2023-05-07T00:54:40;11.80;99.90
22065;DHT22;11197;53.110;8.468;2023-05-07T00:57:07;11.80;99.90
22065;DHT22;11197;53.110;8.468;2023-05-07T00:59:35;11.80;99.90
22065;DHT22;11197;53.110;8.468;2023-05-07T01:02:01;11.80;99.90
22065;DHT22;11197;53.110;8.468;2023-05-07T01:04:27;11.80;99.90
22065;DHT22;11197;53.110;8.468;2023-05-07T01:06:54;11.70;99.90
22065;DHT22;11197;53.110;8.468;2023-05-07T01:09:23;11.80;99.90
22065;DHT22;11197;53.110;8.468;2023-05-07T01:11:50;11.80;99.90
22065;DHT22;11197;53.110;8.468;2023-05-07T01:14:17;11.70;99.90
22065;DHT22;11197;53.110;8.468;2023-05-07T01:16:43;11.70;99.90
22065;DHT22;11197;53.110;8.468;2023-05-07T01:19:11;11.70;99.90
22065;DHT22;11197;53.110;8.468;2023-05-07T01:21:45;11.70;99.90
22065;DHT22;11197;53.110;8.468;2023-05-07T01:24:12;11.60;99.90
22065;DHT22;11197;53.110;8.468;2023-05-07T01:26:39;11.60;99.90
22065;DHT22;11197;53.110;8.468;2023-05-07T01:29:05;11.60;99.90
22065;DHT22;11197;53.110;8.468;2023-05-07T01:31:34;11.60;99.90
22065;DHT22;11197;53.110;8.468;2023-05-07T01:34:01;11.60;99.90
22065;DHT22;11197;53.110;8.468;2023-05-07T01:36:29;11.60;99.90
22065;DHT22;11197;53.110;8.468;2023-05-07T01:38:56;11.60;99.90
22065;DHT22;11197;53.110;8.468;2023-05-07T01:41:23;11.50;99.90
22065;DHT22;11197;53.110;8.468;2023-05-07T01:43:51;11.50;99.90
22065;DHT22;11197;53.110;8.468;2023-05-07T01:46:18;11.50;99.90
22065;DHT22;11197;53.110;8.468;2023-05-07T01:48:45;11.50;99.90
22065;DHT22;11197;53.110;8.468;2023-05-07T01:51:12;11.50;99.90
22065;DHT22;11197;53.110;8.468;2023-05-07T01:53:39;11.50;99.90
22065;DHT22;11197;53.110;8.468;2023-05-07T01:56:06;11.50;99.90
22065;DHT22;11197;53.110;8.468;2023-05-07T01:58:34;11.50;99.90
22065;DHT22;11197;53.110;8.468;2023-05-07T02:01:01;11.50;99.90
22065;DHT22;11197;53.110;8.468;2023-05-07T02:03:26;11.40;99.90
22065;DHT22;11197;53.110;8.468;2023-05-07T02:06:01;11.40;99.90
22065;DHT22;11197;53.110;8.468;2023-05-07T02:08:32;11.40;99.90
22065;DHT22;11197;53.110;8.468;2023-05-07T02:10:58;11.40;99.90
22065;DHT22;11197;53.110;8.468;2023-05-07T02:13:26;11.40;99.90
22065;DHT22;11197;53.110;8.468;2023-05-07T02:15:52;11.40;99.90
22065;DHT22;11197;53.110;8.468;2023-05-07T02:18:19;11.40;99.90
22065;DHT22;11197;53.110;8.468;2023-05-07T02:20:45;11.30;99.90
22065;DHT22;11197;53.110;8.468;2023-05-07T02:23:11;11.30;99.90
22065;DHT22;11197;53.110;8.468;2023-05-07T02:25:37;11.30;99.90
22065;DHT22;11197;53.110;8.468;2023-05-07T02:28:03;11.20;99.90
22065;DHT22;11197;53.110;8.468;2023-05-07T02:30:48;11.20;99.90
22065;DHT22;11197;53.110;8.468;2023-05-07T02:33:15;11.20;99.90
22065;DHT22;11197;53.110;8.468;2023-05-07T02:35:41;11.20;99.90
22065;DHT22;11197;53.110;8.468;2023-05-07T02:38:08;11.30;99.90
22065;DHT22;11197;53.110;8.468;2023-05-07T02:40:36;11.20;99.90
22065;DHT22;11197;53.110;8.468;2023-05-07T02:43:05;11.20;99.90
22065;DHT22;11197;53.110;8.468;2023-05-07T02:45:32;11.20;99.90
22065;DHT22;11197;53.110;8.468;2023-05-07T02:47:59;11.20;99.90
22065;DHT22;11197;53.110;8.468;2023-05-07T02:50:25;11.20;99.90
22065;DHT22;11197;53.110;8.468;2023-05-07T02:52:59;11.20;99.90
22065;DHT22;11197;53.110;8.468;2023-05-07T02:55:25;11.20;99.90
22065;DHT22;11197;53.110;8.468;2023-05-07T02:57:50;11.10;99.90
22065;DHT22;11197;53.110;8.468;2023-05-07T03:00:18;11.10;99.90
22065;DHT22;11197;53.110;8.468;2023-05-07T03:03:19;11.10;99.90
22065;DHT22;11197;53.110;8.468;2023-05-07T03:05:45;11.10;99.90
22065;DHT22;11197;53.110;8.468;2023-05-07T03:08:11;11.10;99.90
22065;DHT22;11197;53.110;8.468;2023-05-07T03:10:37;11.10;99.90
22065;DHT22;11197;53.110;8.468;2023-05-07T03:13:03;11.10;99.90
22065;DHT22;11197;53.110;8.468;2023-05-07T03:15:29;11.10;99.90
22065;DHT22;11197;53.110;8.468;2023-05-07T03:17:56;11.10;99.90
22065;DHT22;11197;53.110;8.468;2023-05-07T03:20:21;11.10;99.90
22065;DHT22;11197;53.110;8.468;2023-05-07T03:22:48;11.10;99.90
22065;DHT22;11197;53.110;8.468;2023-05-07T03:25:13;11.00;99.90
22065;DHT22;11197;53.110;8.468;2023-05-07T03:27:40;11.00;99.90
22065;DHT22;11197;53.110;8.468;2023-05-07T03:30:08;11.00;99.90
22065;DHT22;11197;53.110;8.468;2023-05-07T03:32:34;11.00;99.90
22065;DHT22;11197;53.110;8.468;2023-05-07T03:35:05;10.90;99.90
22065;DHT22;11197;53.110;8.468;2023-05-07T03:37:31;10.90;99.90
22065;DHT22;11197;53.110;8.468;2023-05-07T03:39:57;10.80;99.90
22065;DHT22;11197;53.110;8.468;2023-05-07T03:42:23;10.80;99.90
22065;DHT22;11197;53.110;8.468;2023-05-07T03:44:51;10.80;99.90
22065;DHT22;11197;53.110;8.468;2023-05-07T03:47:17;10.80;99.90
22065;DHT22;11197;53.110;8.468;2023-05-07T03:49:45;10.80;99.90
22065;DHT22;11197;53.110;8.468;2023-05-07T03:52:12;10.80;99.90
22065;DHT22;11197;53.110;8.468;2023-05-07T03:54:37;10.80;99.90
22065;DHT22;11197;53.110;8.468;2023-05-07T03:57:03;10.80;99.90
22065;DHT22;11197;53.110;8.468;2023-05-07T03:59:29;10.80;99.90
22065;DHT22;11197;53.110;8.468;2023-05-07T04:02:01;10.80;99.90
22065;DHT22;11197;53.110;8.468;2023-05-07T04:04:30;10.80;99.90
22065;DHT22;11197;53.110;8.468;2023-05-07T04:06:59;10.70;99.90
22065;DHT22;11197;53.110;8.468;2023-05-07T04:09:26;10.70;99.90
22065;DHT22;11197;53.110;8.468;2023-05-07T04:11:53;10.80;99.90
22065;DHT22;11197;53.110;8.468;2023-05-07T04:14:19;10.70;99.90
22065;DHT22;11197;53.110;8.468;2023-05-07T04:16:45;10.70;99.90
22065;DHT22;11197;53.110;8.468;2023-05-07T04:19:10;10.70;99.90
22065;DHT22;11197;53.110;8.468;2023-05-07T04:21:37;10.70;99.90
22065;DHT22;11197;53.110;8.468;2023-05-07T04:24:04;10.70;99.90
22065;DHT22;11197;53.110;8.468;2023-05-07T04:26:29;10.70;99.90
22065;DHT22;11197;53.110;8.468;2023-05-07T04:28:55;10.70;99.90
22065;DHT22;11197;53.110;8.468;2023-05-07T04:31:24;10.70;99.90
22065;DHT22;11197;53.110;8.468;2023-05-07T04:33:53;10.70;99.90
22065;DHT22;11197;53.110;8.468;2023-05-07T04:36:19;10.60;99.90
22065;DHT22;11197;53.110;8.468;2023-05-07T04:38:51;10.70;99.90
22065;DHT22;11197;53.110;8.468;2023-05-07T04:41:18;10.70;99.90
22065;DHT22;11197;53.110;8.468;2023-05-07T04:43:45;10.70;99.90
22065;DHT22;11197;53.110;8.468;2023-05-07T04:46:13;10.70;99.90
22065;DHT22;11197;53.110;8.468;2023-05-07T04:48:40;10.70;99.90
22065;DHT22;11197;53.110;8.468;2023-05-07T04:51:07;10.70;99.90
22065;DHT22;11197;53.110;8.468;2023-05-07T04:53:33;10.70;99.90
22065;DHT22;11197;53.110;8.468;2023-05-07T04:55:59;10.70;99.90
22065;DHT22;11197;53.110;8.468;2023-05-07T04:58:31;10.70;99.90
22065;DHT22;11197;53.110;8.468;2023-05-07T05:00:58;10.60;99.90
22065;DHT22;11197;53.110;8.468;2023-05-07T05:03:24;10.70;99.90
22065;DHT22;11197;53.110;8.468;2023-05-07T05:05:51;10.60;99.90
22065;DHT22;11197;53.110;8.468;2023-05-07T05:08:18;10.70;99.90
22065;DHT22;11197;53.110;8.468;2023-05-07T05:10:44;10.70;99.90
22065;DHT22;11197;53.110;8.468;2023-05-07T05:13:10;10.70;99.90
22065;DHT22;11197;53.110;8.468;2023-05-07T05:15:38;10.70;99.90
22065;DHT22;11197;53.110;8.468;2023-05-07T05:18:05;10.70;99.90
22065;DHT22;11197;53.110;8.468;2023-05-07T05:20:31;10.60;99.90
22065;DHT22;11197;53.110;8.468;2023-05-07T05:22:57;10.70;99.90
22065;DHT22;11197;53.110;8.468;2023-05-07T05:25:23;10.70;99.90
22065;DHT22;11197;53.110;8.468;2023-05-07T05:27:49;10.60;99.90
22065;DHT22;11197;53.110;8.468;2023-05-07T05:30:15;10.70;99.90
22065;DHT22;11197;53.110;8.468;2023-05-07T05:32:44;10.70;99.90
22065;DHT22;11197;53.110;8.468;2023-05-07T05:35:10;10.70;99.90
22065;DHT22;11197;53.110;8.468;2023-05-07T05:37:36;10.70;99.90
22065;DHT22;11197;53.110;8.468;2023-05-07T05:40:05;10.70;99.90
22065;DHT22;11197;53.110;8.468;2023-05-07T05:42:31;10.70;99.90
22065;DHT22;11197;53.110;8.468;2023-05-07T05:44:57;10.70;99.90
22065;DHT22;11197;53.110;8.468;2023-05-07T05:47:24;10.70;99.90
22065;DHT22;11197;53.110;8.468;2023-05-07T05:49:53;10.70;99.90
22065;DHT22;11197;53.110;8.468;2023-05-07T05:52:19;10.80;99.90
22065;DHT22;11197;53.110;8.468;2023-05-07T05:54:46;10.80;99.90
22065;DHT22;11197;53.110;8.468;2023-05-07T05:57:12;10.80;99.90
22065;DHT22;11197;53.110;8.468;2023-05-07T05:59:38;10.70;99.90
22065;DHT22;11197;53.110;8.468;2023-05-07T06:02:04;10.80;99.90
22065;DHT22;11197;53.110;8.468;2023-05-07T06:04:30;10.80;99.90
22065;DHT22;11197;53.110;8.468;2023-05-07T06:06:56;10.80;99.90
22065;DHT22;11197;53.110;8.468;2023-05-07T06:09:24;10.80;99.90
22065;DHT22;11197;53.110;8.468;2023-05-07T06:11:50;10.80;99.90
22065;DHT22;11197;53.110;8.468;2023-05-07T06:14:17;10.70;99.90
22065;DHT22;11197;53.110;8.468;2023-05-07T06:16:43;10.70;99.90
22065;DHT22;11197;53.110;8.468;2023-05-07T06:19:10;10.70;99.90
22065;DHT22;11197;53.110;8.468;2023-05-07T06:21:36;10.70;99.90
22065;DHT22;11197;53.110;8.468;2023-05-07T06:24:02;10.70;99.90
22065;DHT22;11197;53.110;8.468;2023-05-07T06:26:29;10.70;99.90
22065;DHT22;11197;53.110;8.468;2023-05-07T06:28:55;10.70;99.90
22065;DHT22;11197;53.110;8.468;2023-05-07T06:31:21;10.70;99.90
22065;DHT22;11197;53.110;8.468;2023-05-07T06:33:58;10.70;99.90
22065;DHT22;11197;53.110;8.468;2023-05-07T06:36:30;10.70;99.90
22065;DHT22;11197;53.110;8.468;2023-05-07T06:38:59;10.70;99.90
22065;DHT22;11197;53.110;8.468;2023-05-07T06:41:25;10.80;99.90
22065;DHT22;11197;53.110;8.468;2023-05-07T06:43:51;10.70;99.90
22065;DHT22;11197;53.110;8.468;2023-05-07T06:46:31;10.70;99.90
22065;DHT22;11197;53.110;8.468;2023-05-07T06:48:57;10.70;99.90
22065;DHT22;11197;53.110;8.468;2023-05-07T06:51:24;10.70;99.90
22065;DHT22;11197;53.110;8.468;2023-05-07T06:53:50;10.70;99.90
22065;DHT22;11197;53.110;8.468;2023-05-07T06:56:15;10.80;99.90
22065;DHT22;11197;53.110;8.468;2023-05-07T06:58:42;10.80;99.90
22065;DHT22;11197;53.110;8.468;2023-05-07T07:01:09;10.80;99.90
22065;DHT22;11197;53.110;8.468;2023-05-07T07:03:37;10.80;99.90
22065;DHT22;11197;53.110;8.468;2023-05-07T07:06:03;10.80;99.90
22065;DHT22;11197;53.110;8.468;2023-05-07T07:08:29;10.90;99.90
22065;DHT22;11197;53.110;8.468;2023-05-07T07:10:56;10.90;99.90
22065;DHT22;11197;53.110;8.468;2023-05-07T07:13:21;10.90;99.90
22065;DHT22;11197;53.110;8.468;2023-05-07T07:15:48;11.00;99.90
22065;DHT22;11197;53.110;8.468;2023-05-07T07:18:14;11.00;99.90
22065;DHT22;11197;53.110;8.468;2023-05-07T07:20:41;11.00;99.90
22065;DHT22;11197;53.110;8.468;2023-05-07T07:23:08;11.00;99.90
22065;DHT22;11197;53.110;8.468;2023-05-07T07:25:37;11.00;99.90
22065;DHT22;11197;53.110;8.468;2023-05-07T07:28:03;11.00;99.90
22065;DHT22;11197;53.110;8.468;2023-05-07T07:30:29;11.00;99.90
22065;DHT22;11197;53.110;8.468;2023-05-07T07:32:55;11.00;99.90
22065;DHT22;11197;53.110;8.468;2023-05-07T07:35:28;11.10;99.90
22065;DHT22;11197;53.110;8.468;2023-05-07T07:37:57;11.00;99.90
22065;DHT22;11197;53.110;8.468;2023-05-07T07:40:23;11.00;99.90
22065;DHT22;11197;53.110;8.468;2023-05-07T07:42:49;11.10;99.90
22065;DHT22;11197;53.110;8.468;2023-05-07T07:45:15;11.10;99.90
22065;DHT22;11197;53.110;8.468;2023-05-07T07:47:45;11.10;99.90
22065;DHT22;11197;53.110;8.468;2023-05-07T07:50:11;11.10;99.90
22065;DHT22;11197;53.110;8.468;2023-05-07T07:52:37;11.10;99.90
22065;DHT22;11197;53.110;8.468;2023-05-07T07:55:04;11.20;99.90
22065;DHT22;11197;53.110;8.468;2023-05-07T07:57:30;11.10;99.90
22065;DHT22;11197;53.110;8.468;2023-05-07T07:59:56;11.20;99.90
22065;DHT22;11197;53.110;8.468;2023-05-07T08:02:22;11.20;99.90
22065;DHT22;11197;53.110;8.468;2023-05-07T08:04:49;11.20;99.90
22065;DHT22;11197;53.110;8.468;2023-05-07T08:07:16;11.20;99.90
22065;DHT22;11197;53.110;8.468;2023-05-07T08:09:47;11.20;99.90
22065;DHT22;11197;53.110;8.468;2023-05-07T08:12:14;11.30;99.90
22065;DHT22;11197;53.110;8.468;2023-05-07T08:14:41;11.30;99.90
22065;DHT22;11197;53.110;8.468;2023-05-07T08:17:08;11.30;99.90
22065;DHT22;11197;53.110;8.468;2023-05-07T08:19:35;11.40;99.90
22065;DHT22;11197;53.110;8.468;2023-05-07T08:22:03;11.40;99.90
22065;DHT22;11197;53.110;8.468;2023-05-07T08:24:30;11.50;99.90
22065;DHT22;11197;53.110;8.468;2023-05-07T08:26:56;11.50;99.90
22065;DHT22;11197;53.110;8.468;2023-05-07T08:29:22;11.50;99.90
22065;DHT22;11197;53.110;8.468;2023-05-07T08:31:48;11.60;99.90
22065;DHT22;11197;53.110;8.468;2023-05-07T08:34:14;11.60;99.90
22065;DHT22;11197;53.110;8.468;2023-05-07T08:36:42;11.60;99.90
22065;DHT22;11197;53.110;8.468;2023-05-07T08:39:09;11.60;99.90
22065;DHT22;11197;53.110;8.468;2023-05-07T08:41:35;11.60;99.90
22065;DHT22;11197;53.110;8.468;2023-05-07T08:44:03;11.60;99.90
22065;DHT22;11197;53.110;8.468;2023-05-07T08:46:32;11.60;99.90
22065;DHT22;11197;53.110;8.468;2023-05-07T08:48:58;11.60;99.90
22065;DHT22;11197;53.110;8.468;2023-05-07T08:51:24;11.60;99.90
22065;DHT22;11197;53.110;8.468;2023-05-07T08:53:51;11.70;99.90
22065;DHT22;11197;53.110;8.468;2023-05-07T08:56:23;11.80;99.90
22065;DHT22;11197;53.110;8.468;2023-05-07T08:58:52;11.80;99.90
22065;DHT22;11197;53.110;8.468;2023-05-07T09:01:22;11.80;99.90
22065;DHT22;11197;53.110;8.468;2023-05-07T09:03:51;11.90;99.90
22065;DHT22;11197;53.110;8.468;2023-05-07T09:06:19;12.00;99.90
22065;DHT22;11197;53.110;8.468;2023-05-07T09:08:53;12.10;99.90
22065;DHT22;11197;53.110;8.468;2023-05-07T09:11:21;12.20;99.90
22065;DHT22;11197;53.110;8.468;2023-05-07T09:13:55;12.20;99.90
22065;DHT22;11197;53.110;8.468;2023-05-07T09:16:23;12.20;99.90
22065;DHT22;11197;53.110;8.468;2023-05-07T09:18:54;12.30;99.90
22065;DHT22;11197;53.110;8.468;2023-05-07T09:21:22;12.30;99.90
22065;DHT22;11197;53.110;8.468;2023-05-07T09:23:51;12.30;99.90
22065;DHT22;11197;53.110;8.468;2023-05-07T09:26:21;12.30;99.90
22065;DHT22;11197;53.110;8.468;2023-05-07T09:28:48;12.30;99.90
22065;DHT22;11197;53.110;8.468;2023-05-07T09:31:14;12.30;99.90
22065;DHT22;11197;53.110;8.468;2023-05-07T09:33:41;12.40;99.90
22065;DHT22;11197;53.110;8.468;2023-05-07T09:36:09;12.30;99.90
22065;DHT22;11197;53.110;8.468;2023-05-07T09:38:38;12.40;99.90
22065;DHT22;11197;53.110;8.468;2023-05-07T09:41:06;12.40;99.90
22065;DHT22;11197;53.110;8.468;2023-05-07T09:43:39;12.40;99.90
22065;DHT22;11197;53.110;8.468;2023-05-07T09:46:17;12.40;99.90
22065;DHT22;11197;53.110;8.468;2023-05-07T09:48:53;12.50;99.90
22065;DHT22;11197;53.110;8.468;2023-05-07T09:51:29;12.50;99.90
22065;DHT22;11197;53.110;8.468;2023-05-07T09:53:58;12.50;99.90
22065;DHT22;11197;53.110;8.468;2023-05-07T09:56:30;12.50;99.90
22065;DHT22;11197;53.110;8.468;2023-05-07T09:59:00;12.60;99.90
22065;DHT22;11197;53.110;8.468;2023-05-07T10:01:27;12.60;99.90
22065;DHT22;11197;53.110;8.468;2023-05-07T10:03:54;12.60;99.90
22065;DHT22;11197;53.110;8.468;2023-05-07T10:06:21;12.70;99.90
22065;DHT22;11197;53.110;8.468;2023-05-07T10:08:48;12.70;99.90
22065;DHT22;11197;53.110;8.468;2023-05-07T10:11:15;12.80;99.90
22065;DHT22;11197;53.110;8.468;2023-05-07T10:13:43;12.80;99.90
22065;DHT22;11197;53.110;8.468;2023-05-07T10:16:09;12.90;99.90
22065;DHT22;11197;53.110;8.468;2023-05-07T10:18:41;12.90;99.90
22065;DHT22;11197;53.110;8.468;2023-05-07T10:21:18;13.00;99.90
22065;DHT22;11197;53.110;8.468;2023-05-07T10:23:46;13.10;99.90
22065;DHT22;11197;53.110;8.468;2023-05-07T10:26:15;13.20;99.90
22065;DHT22;11197;53.110;8.468;2023-05-07T10:28:46;13.30;99.90
22065;DHT22;11197;53.110;8.468;2023-05-07T10:33:58;13.40;99.90
22065;DHT22;11197;53.110;8.468;2023-05-07T10:36:25;13.40;99.90
22065;DHT22;11197;53.110;8.468;2023-05-07T10:38:53;13.40;99.90
22065;DHT22;11197;53.110;8.468;2023-05-07T10:41:20;13.50;99.90
22065;DHT22;11197;53.110;8.468;2023-05-07T10:43:47;13.50;99.90
22065;DHT22;11197;53.110;8.468;2023-05-07T10:46:24;13.60;99.90
22065;DHT22;11197;53.110;8.468;2023-05-07T10:49:06;13.60;99.90
22065;DHT22;11197;53.110;8.468;2023-05-07T10:51:41;13.60;99.90
22065;DHT22;11197;53.110;8.468;2023-05-07T10:54:18;13.60;99.90
22065;DHT22;11197;53.110;8.468;2023-05-07T10:56:53;13.60;99.90
22065;DHT22;11197;53.110;8.468;2023-05-07T10:59:31;13.60;99.90
22065;DHT22;11197;53.110;8.468;2023-05-07T11:02:03;13.60;99.90
22065;DHT22;11197;53.110;8.468;2023-05-07T11:04:40;13.60;99.90
22065;DHT22;11197;53.110;8.468;2023-05-07T11:07:29;13.60;99.90
22065;DHT22;11197;53.110;8.468;2023-05-07T11:10:01;13.70;99.90
22065;DHT22;11197;53.110;8.468;2023-05-07T11:12:49;13.70;99.90
22065;DHT22;11197;53.110;8.468;2023-05-07T11:15:40;13.70;99.90
22065;DHT22;11197;53.110;8.468;2023-05-07T11:18:17;13.80;99.90
22065;DHT22;11197;53.110;8.468;2023-05-07T11:20:54;13.80;99.90
22065;DHT22;11197;53.110;8.468;2023-05-07T11:26:28;13.90;99.90
22065;DHT22;11197;53.110;8.468;2023-05-07T11:28:55;14.00;99.90
22065;DHT22;11197;53.110;8.468;2023-05-07T11:31:26;14.00;99.90
22065;DHT22;11197;53.110;8.468;2023-05-07T11:33:54;14.00;99.90
22065;DHT22;11197;53.110;8.468;2023-05-07T11:36:22;14.10;99.90
22065;DHT22;11197;53.110;8.468;2023-05-07T11:38:51;14.20;99.90
22065;DHT22;11197;53.110;8.468;2023-05-07T11:41:17;14.20;99.90
22065;DHT22;11197;53.110;8.468;2023-05-07T11:44:03;14.20;99.90
22065;DHT22;11197;53.110;8.468;2023-05-07T11:46:29;14.40;99.90
22065;DHT22;11197;53.110;8.468;2023-05-07T11:48:56;14.70;99.90
22065;DHT22;11197;53.110;8.468;2023-05-07T11:51:24;14.90;99.90
22065;DHT22;11197;53.110;8.468;2023-05-07T11:53:51;15.10;99.90
22065;DHT22;11197;53.110;8.468;2023-05-07T11:56:18;15.40;99.90
22065;DHT22;11197;53.110;8.468;2023-05-07T11:58:45;15.60;99.90
22065;DHT22;11197;53.110;8.468;2023-05-07T12:01:14;15.60;99.90
22065;DHT22;11197;53.110;8.468;2023-05-07T12:03:42;15.60;99.90
22065;DHT22;11197;53.110;8.468;2023-05-07T12:06:09;15.70;99.90
22065;DHT22;11197;53.110;8.468;2023-05-07T12:08:37;15.90;99.90
22065;DHT22;11197;53.110;8.468;2023-05-07T12:11:03;16.00;99.90
22065;DHT22;11197;53.110;8.468;2023-05-07T12:13:32;16.00;99.90
22065;DHT22;11197;53.110;8.468;2023-05-07T12:15:59;16.10;99.90
22065;DHT22;11197;53.110;8.468;2023-05-07T12:18:24;16.10;99.90
22065;DHT22;11197;53.110;8.468;2023-05-07T12:20:51;16.10;99.90
22065;DHT22;11197;53.110;8.468;2023-05-07T12:23:17;16.00;99.90
22065;DHT22;11197;53.110;8.468;2023-05-07T12:25:43;15.90;99.90
22065;DHT22;11197;53.110;8.468;2023-05-07T12:28:14;15.70;99.90
22065;DHT22;11197;53.110;8.468;2023-05-07T12:30:44;15.70;99.90
22065;DHT22;11197;53.110;8.468;2023-05-07T12:33:10;15.60;99.90
22065;DHT22;11197;53.110;8.468;2023-05-07T12:35:40;15.50;99.90
22065;DHT22;11197;53.110;8.468;2023-05-07T12:38:12;15.50;99.90
22065;DHT22;11197;53.110;8.468;2023-05-07T12:40:40;15.50;99.90
22065;DHT22;11197;53.110;8.468;2023-05-07T12:43:27;15.60;99.90
22065;DHT22;11197;53.110;8.468;2023-05-07T12:46:05;15.70;99.90
22065;DHT22;11197;53.110;8.468;2023-05-07T12:48:31;15.70;99.90
22065;DHT22;11197;53.110;8.468;2023-05-07T12:51:00;15.70;99.90
22065;DHT22;11197;53.110;8.468;2023-05-07T12:53:28;15.70;99.90
22065;DHT22;11197;53.110;8.468;2023-05-07T12:55:56;15.70;99.90
22065;DHT22;11197;53.110;8.468;2023-05-07T12:58:26;15.70;99.90
22065;DHT22;11197;53.110;8.468;2023-05-07T13:00:52;15.90;99.90
22065;DHT22;11197;53.110;8.468;2023-05-07T13:03:33;15.90;99.90
22065;DHT22;11197;53.110;8.468;2023-05-07T13:06:01;15.90;99.90
22065;DHT22;11197;53.110;8.468;2023-05-07T13:10:54;15.90;99.90
22065;DHT22;11197;53.110;8.468;2023-05-07T13:13:20;16.00;99.90
22065;DHT22;11197;53.110;8.468;2023-05-07T13:15:47;16.00;99.90
22065;DHT22;11197;53.110;8.468;2023-05-07T13:18:13;16.00;99.90
22065;DHT22;11197;53.110;8.468;2023-05-07T13:20:39;16.00;99.90
22065;DHT22;11197;53.110;8.468;2023-05-07T13:23:06;16.00;99.90
22065;DHT22;11197;53.110;8.468;2023-05-07T13:25:32;16.00;99.90
22065;DHT22;11197;53.110;8.468;2023-05-07T13:27:57;15.90;99.90
22065;DHT22;11197;53.110;8.468;2023-05-07T13:30:23;16.00;99.90
22065;DHT22;11197;53.110;8.468;2023-05-07T13:32:49;16.00;99.90
22065;DHT22;11197;53.110;8.468;2023-05-07T13:35:16;16.00;99.90
22065;DHT22;11197;53.110;8.468;2023-05-07T13:37:42;16.00;99.90
22065;DHT22;11197;53.110;8.468;2023-05-07T13:40:08;16.00;99.90
22065;DHT22;11197;53.110;8.468;2023-05-07T13:42:34;16.10;99.90
22065;DHT22;11197;53.110;8.468;2023-05-07T13:45:00;16.10;99.90
22065;DHT22;11197;53.110;8.468;2023-05-07T13:47:26;16.20;99.90
22065;DHT22;11197;53.110;8.468;2023-05-07T13:49:52;16.20;99.90
22065;DHT22;11197;53.110;8.468;2023-05-07T13:52:18;16.30;99.90
22065;DHT22;11197;53.110;8.468;2023-05-07T13:54:44;16.30;99.90
22065;DHT22;11197;53.110;8.468;2023-05-07T13:57:10;16.30;99.90
22065;DHT22;11197;53.110;8.468;2023-05-07T13:59:36;16.30;99.90
22065;DHT22;11197;53.110;8.468;2023-05-07T14:02:02;16.40;99.90
22065;DHT22;11197;53.110;8.468;2023-05-07T14:04:27;16.30;99.90
22065;DHT22;11197;53.110;8.468;2023-05-07T14:06:53;16.30;99.90
22065;DHT22;11197;53.110;8.468;2023-05-07T14:09:19;16.30;99.90
22065;DHT22;11197;53.110;8.468;2023-05-07T14:11:45;16.30;99.90
22065;DHT22;11197;53.110;8.468;2023-05-07T14:14:13;16.30;99.90
22065;DHT22;11197;53.110;8.468;2023-05-07T14:16:38;16.30;99.90
22065;DHT22;11197;53.110;8.468;2023-05-07T14:19:04;16.30;99.90
22065;DHT22;11197;53.110;8.468;2023-05-07T14:21:30;16.40;99.90
22065;DHT22;11197;53.110;8.468;2023-05-07T14:23:56;16.50;99.90
22065;DHT22;11197;53.110;8.468;2023-05-07T14:26:22;16.50;99.90
22065;DHT22;11197;53.110;8.468;2023-05-07T14:28:48;16.50;99.90
22065;DHT22;11197;53.110;8.468;2023-05-07T14:31:14;16.60;99.90
22065;DHT22;11197;53.110;8.468;2023-05-07T14:33:40;16.70;99.90
22065;DHT22;11197;53.110;8.468;2023-05-07T14:36:06;16.70;99.90
22065;DHT22;11197;53.110;8.468;2023-05-07T14:38:32;16.70;99.90
22065;DHT22;11197;53.110;8.468;2023-05-07T14:40:58;16.70;99.90
22065;DHT22;11197;53.110;8.468;2023-05-07T14:43:24;16.80;99.90
22065;DHT22;11197;53.110;8.468;2023-05-07T14:45:50;16.90;99.90
22065;DHT22;11197;53.110;8.468;2023-05-07T14:48:16;16.80;99.90
22065;DHT22;11197;53.110;8.468;2023-05-07T14:50:42;16.90;99.90
22065;DHT22;11197;53.110;8.468;2023-05-07T14:53:08;16.90;99.90
22065;DHT22;11197;53.110;8.468;2023-05-07T14:55:34;16.90;99.90
22065;DHT22;11197;53.110;8.468;2023-05-07T14:58:00;17.00;99.90
22065;DHT22;11197;53.110;8.468;2023-05-07T15:00:26;17.00;99.90
22065;DHT22;11197;53.110;8.468;2023-05-07T15:02:55;17.00;99.90
22065;DHT22;11197;53.110;8.468;2023-05-07T15:05:25;17.00;99.90
22065;DHT22;11197;53.110;8.468;2023-05-07T15:07:51;17.00;99.90
22065;DHT22;11197;53.110;8.468;2023-05-07T15:10:17;17.00;99.90
22065;DHT22;11197;53.110;8.468;2023-05-07T15:12:42;17.00;99.90
22065;DHT22;11197;53.110;8.468;2023-05-07T15:15:09;17.00;99.90
22065;DHT22;11197;53.110;8.468;2023-05-07T15:17:35;17.00;99.90
22065;DHT22;11197;53.110;8.468;2023-05-07T15:20:00;17.00;99.90
22065;DHT22;11197;53.110;8.468;2023-05-07T15:22:27;16.90;99.90
22065;DHT22;11197;53.110;8.468;2023-05-07T15:24:53;16.90;99.90
22065;DHT22;11197;53.110;8.468;2023-05-07T15:27:20;16.90;99.90
22065;DHT22;11197;53.110;8.468;2023-05-07T15:29:46;16.90;99.90
22065;DHT22;11197;53.110;8.468;2023-05-07T15:32:12;16.90;99.90
22065;DHT22;11197;53.110;8.468;2023-05-07T15:34:38;16.90;99.90
22065;DHT22;11197;53.110;8.468;2023-05-07T15:37:04;16.80;99.90
22065;DHT22;11197;53.110;8.468;2023-05-07T15:39:31;16.80;99.90
22065;DHT22;11197;53.110;8.468;2023-05-07T15:41:56;16.80;99.90